createdAt,value
2022-11-29T17:07:01.629Z,96832.91
2022-11-29T17:09:34.700Z,96835.03
2022-11-29T17:12:06.520Z,96828.06
2022-11-29T17:14:41.535Z,96833.84
2022-11-29T17:17:17.198Z,96830.00
2022-11-29T17:19:48.415Z,96840.59
2022-11-29T17:22:26.930Z,96837.53
2022-11-29T17:24:57.031Z,96842.78
2022-11-29T17:27:27.105Z,96835.81
2022-11-29T17:29:54.323Z,96844.50
2022-11-29T17:32:27.013Z,96839.63
2022-11-29T17:34:56.797Z,96842.00
2022-11-29T17:37:26.581Z,96842.88
2022-11-29T17:39:54.515Z,96839.09
2022-11-29T17:42:22.801Z,96840.34
2022-11-29T17:44:52.365Z,96839.78
2022-11-29T17:47:21.897Z,96837.75
2022-11-29T17:49:49.354Z,96842.56
2022-11-29T17:52:16.605Z,96845.53
2022-11-29T17:54:44.313Z,96839.63
2022-11-29T17:57:11.532Z,96845.31
2022-11-29T17:59:38.710Z,96842.78
2022-11-29T18:02:06.009Z,96837.00
2022-11-29T18:04:33.242Z,96843.81
2022-11-29T18:07:01.707Z,96839.22
2022-11-29T18:09:28.952Z,96846.47
2022-11-29T18:11:56.223Z,96842.66
2022-11-29T18:14:28.222Z,96841.75
2022-11-29T18:16:55.753Z,96840.13
2022-11-29T18:19:23.899Z,96841.97
2022-11-29T18:21:52.111Z,96842.28
2022-11-29T18:24:20.000Z,96839.34
2022-11-29T18:26:47.334Z,96838.41
2022-11-29T18:29:14.762Z,96846.28
2022-11-29T18:31:45.174Z,96844.44
2022-11-29T18:34:14.930Z,96852.94
2022-11-29T18:36:46.439Z,96850.28
2022-11-29T18:39:20.075Z,96851.97
2022-11-29T18:41:50.196Z,96848.16
2022-11-29T18:44:21.875Z,96839.13
2022-11-29T18:46:49.328Z,96846.38
2022-11-29T18:49:18.205Z,96843.72
2022-11-29T18:51:47.646Z,96848.03
2022-11-29T18:54:18.035Z,96845.84
2022-11-29T18:56:46.975Z,96852.72
2022-11-29T18:59:17.889Z,96848.75
2022-11-29T19:01:48.218Z,96853.41
2022-11-29T19:04:21.318Z,96855.22
2022-11-29T19:06:49.051Z,96851.22
2022-11-29T19:09:23.499Z,96845.09
2022-11-29T19:11:51.056Z,96851.06
2022-11-29T19:14:19.297Z,96846.59
2022-11-29T19:16:49.564Z,96851.25
2022-11-29T19:19:18.799Z,96855.28
2022-11-29T19:21:46.098Z,96858.91
2022-11-29T19:24:18.272Z,96853.66
2022-11-29T19:26:48.135Z,96865.16
2022-11-29T19:29:16.213Z,96856.13
2022-11-29T19:31:43.780Z,96863.13
2022-11-29T19:34:11.107Z,96861.38
2022-11-29T19:36:44.780Z,96864.66
2022-11-29T19:39:16.541Z,96860.50
2022-11-29T19:41:47.164Z,96858.00
2022-11-29T19:44:14.806Z,96859.38
2022-11-29T19:46:46.043Z,96852.84
2022-11-29T19:49:13.306Z,96862.47
2022-11-29T19:51:41.460Z,96865.41
2022-11-29T19:54:10.426Z,96873.88
2022-11-29T19:56:39.485Z,96871.16
2022-11-29T19:59:09.050Z,96874.69
2022-11-29T20:01:42.559Z,96873.59
2022-11-29T20:04:13.008Z,96879.25
2022-11-29T20:06:41.817Z,96872.44
2022-11-29T20:09:10.690Z,96877.97
2022-11-29T20:11:38.622Z,96875.03
2022-11-29T20:14:07.907Z,96873.63
2022-11-29T20:16:38.162Z,96872.22
2022-11-29T20:19:14.727Z,96865.75
2022-11-29T20:21:46.361Z,96871.63
2022-11-29T20:24:14.857Z,96866.56
2022-11-29T20:26:46.741Z,96870.00
2022-11-29T20:29:15.445Z,96872.22
2022-11-29T20:31:50.083Z,96870.56
2022-11-29T20:34:18.782Z,96872.56
2022-11-29T20:37:27.199Z,96880.31
2022-11-29T20:40:28.733Z,96872.91
2022-11-29T20:43:22.402Z,96876.66
2022-11-29T20:45:50.940Z,96875.63
2022-11-29T20:48:22.619Z,96882.53
2022-11-29T20:51:00.523Z,96879.13
2022-11-29T20:53:44.355Z,96862.56
2022-11-29T20:56:12.346Z,96872.78
2022-11-29T20:58:40.133Z,96875.25
2022-11-29T21:01:08.226Z,96872.69
2022-11-29T21:03:36.125Z,96867.75
2022-11-29T21:06:06.622Z,96871.16
2022-11-29T21:08:35.658Z,96875.97
2022-11-29T21:11:12.818Z,96878.31
2022-11-29T21:13:40.787Z,96880.31
2022-11-29T21:16:11.461Z,96876.44
2022-11-29T21:18:39.364Z,96879.13
2022-11-29T21:21:22.714Z,96872.31
2022-11-29T21:24:28.170Z,96875.25
2022-11-29T21:26:55.870Z,96874.34
2022-11-29T21:29:23.786Z,96874.09
2022-11-29T21:31:54.215Z,96867.28
2022-11-29T21:34:22.103Z,96861.41
2022-11-29T21:36:58.123Z,96860.59
2022-11-29T21:39:34.202Z,96864.63
2022-11-29T21:42:02.188Z,96857.03
2022-11-29T21:44:29.552Z,96854.06
2022-11-29T21:46:56.731Z,96858.13
2022-11-29T21:49:24.032Z,96855.41
2022-11-29T21:51:51.209Z,96861.16
2022-11-29T21:54:18.438Z,96858.59
2022-11-29T21:56:45.768Z,96853.00
2022-11-29T21:59:12.939Z,96849.81
2022-11-29T22:01:40.223Z,96850.00
2022-11-29T22:04:07.635Z,96845.16
2022-11-29T22:06:36.813Z,96852.47
2022-11-29T22:09:07.739Z,96850.38
2022-11-29T22:11:35.550Z,96857.16
2022-11-29T22:14:14.957Z,96852.09
2022-11-29T22:16:49.744Z,96859.94
2022-11-29T22:19:21.874Z,96846.47
2022-11-29T22:21:52.811Z,96856.94
2022-11-29T22:24:23.910Z,96847.03
2022-11-29T22:26:53.134Z,96854.69
2022-11-29T22:29:21.920Z,96848.91
2022-11-29T22:31:53.228Z,96851.09
2022-11-29T22:34:22.190Z,96846.91
2022-11-29T22:36:49.653Z,96856.88
2022-11-29T22:39:17.080Z,96849.66
2022-11-29T22:41:46.117Z,96848.06
2022-11-29T22:44:16.478Z,96855.34
2022-11-29T22:46:43.836Z,96852.63
2022-11-29T22:49:10.975Z,96859.25
2022-11-29T22:51:38.881Z,96856.44
2022-11-29T22:54:09.523Z,96850.59
2022-11-29T22:56:40.962Z,96847.31
2022-11-29T22:59:08.749Z,96852.50
2022-11-29T23:01:39.280Z,96858.63
2022-11-29T23:04:08.589Z,96841.00
2022-11-29T23:06:39.342Z,96846.84
2022-11-29T23:09:22.409Z,96835.28
2022-11-29T23:11:56.338Z,96846.84
2022-11-29T23:14:24.755Z,96832.03
2022-11-29T23:16:53.133Z,96838.00
2022-11-29T23:19:20.927Z,96838.75
2022-11-29T23:21:48.240Z,96834.63
2022-11-29T23:24:15.995Z,96836.38
2022-11-29T23:26:47.749Z,96843.97
2022-11-29T23:29:19.937Z,96841.19
2022-11-29T23:31:47.600Z,96842.09
2022-11-29T23:34:15.656Z,96847.25
2022-11-29T23:36:44.809Z,96840.38
2022-11-29T23:39:15.580Z,96840.97
2022-11-29T23:41:42.823Z,96833.75
2022-11-29T23:44:11.219Z,96841.16
2022-11-29T23:46:38.466Z,96841.03
2022-11-29T23:49:05.701Z,96835.06
2022-11-29T23:51:32.950Z,96842.31
2022-11-29T23:54:00.045Z,96832.63
2022-11-29T23:56:27.639Z,96834.25
2022-11-29T23:58:54.792Z,96833.22
